Time;durP1;ratioP1;P1;durP2;ratioP2;P2;SDS_P1;SDS_P2;PMS_P1;PMS_P2;Temp;Humidity;BMP_temperature;BMP_pressure;BME280_temperature;BME280_humidity;BME280_pressure;Samples;Min_cycle;Max_cycle;Signal;HPM_P1;HPM_P2
2023/12/16 00:02:26;;;;;;;7.27;2.70;;;4.80;99.90;3.90;101570;;;;565842;250;24189;-89
2023/12/16 00:04:57;;;;;;;21.27;7.07;;;4.90;99.90;3.90;101576;;;;563840;254;24180;-90
2023/12/16 00:07:28;;;;;;;10.90;4.07;;;4.90;99.90;4.00;101581;;;;556157;255;24114;-87
2023/12/16 00:10:06;;;;;;;11.13;3.30;;;4.90;99.90;4.00;101582;;;;564532;254;24165;-88
2023/12/16 00:12:44;;;;;;;14.57;4.50;;;4.90;99.90;4.00;101578;;;;560255;250;24166;-88
2023/12/16 00:15:15;;;;;;;9.27;4.17;;;4.90;99.90;4.00;101572;;;;556608;253;24123;-89
2023/12/16 00:17:47;;;;;;;8.70;3.33;;;4.90;99.90;4.00;101565;;;;560029;252;24199;-89
2023/12/16 00:20:15;;;;;;;8.50;3.60;;;5.00;99.90;4.10;101579;;;;560428;252;24175;-87
2023/12/16 00:22:44;;;;;;;4.70;1.90;;;5.00;99.90;4.10;101597;;;;559794;253;24184;-90
2023/12/16 00:25:13;;;;;;;5.90;2.37;;;5.00;99.90;4.10;101604;;;;556248;251;24118;-91
2023/12/16 00:27:39;;;;;;;6.80;3.17;;;5.00;99.90;4.10;101605;;;;559645;252;24121;-91
2023/12/16 00:30:08;;;;;;;5.13;2.33;;;5.00;99.90;4.10;101609;;;;560851;251;24138;-91
2023/12/16 00:32:39;;;;;;;19.27;6.00;;;5.00;99.90;4.10;101627;;;;565373;250;24154;-89
2023/12/16 00:35:10;;;;;;;12.40;4.07;;;5.00;99.90;4.10;101625;;;;554333;254;24202;-89
2023/12/16 00:37:55;;;;;;;22.90;5.27;;;5.00;99.90;4.10;101614;;;;565692;254;24189;-92
2023/12/16 00:40:30;;;;;;;10.80;3.57;;;5.10;99.90;4.10;101608;;;;556005;254;24147;-90
2023/12/16 00:42:55;;;;;;;11.27;4.67;;;5.10;99.90;4.10;101596;;;;555804;254;24178;-87
2023/12/16 00:45:27;;;;;;;13.07;5.00;;;5.10;99.90;4.10;101607;;;;555881;254;24196;-91
2023/12/16 00:47:55;;;;;;;9.87;3.83;;;5.10;99.90;4.20;101609;;;;559381;253;24173;-91
2023/12/16 00:50:22;;;;;;;12.97;5.00;;;5.10;99.90;4.20;101600;;;;565723;250;24175;-92
2023/12/16 00:52:53;;;;;;;14.87;5.73;;;5.10;99.90;4.20;101603;;;;555537;255;24138;-91
2023/12/16 00:55:22;;;;;;;9.73;4.30;;;5.10;99.90;4.20;101602;;;;556344;254;24148;-89
2023/12/16 00:57:50;;;;;;;3.87;2.10;;;5.10;99.90;4.20;101606;;;;556605;254;24191;-89
2023/12/16 01:00:19;;;;;;;16.27;6.53;;;5.10;99.90;4.20;101603;;;;556817;254;24193;-88
2023/12/16 01:02:47;;;;;;;13.60;5.40;;;5.20;99.90;4.20;101598;;;;556980;249;24172;-88
2023/12/16 01:05:18;;;;;;;11.07;3.90;;;5.20;99.90;4.30;101593;;;;560607;253;24156;-89
2023/12/16 01:07:49;;;;;;;15.87;4.97;;;5.10;99.90;4.30;101589;;;;559490;253;24184;-90
2023/12/16 01:10:14;;;;;;;12.63;3.87;;;5.30;99.90;4.30;101582;;;;558397;252;24158;-90
2023/12/16 01:12:43;;;;;;;11.13;4.70;;;5.20;99.90;4.30;101586;;;;568196;252;24142;-90
2023/12/16 01:15:17;;;;;;;11.53;4.93;;;5.30;99.90;4.40;101585;;;;565902;250;24125;-91
2023/12/16 01:17:53;;;;;;;9.00;3.57;;;5.30;99.90;4.40;101579;;;;554190;255;24263;-91
2023/12/16 01:20:20;;;;;;;9.77;4.07;;;5.30;99.90;4.40;101591;;;;563550;254;24273;-90
2023/12/16 01:22:50;;;;;;;9.67;3.00;;;5.30;99.90;4.40;101587;;;;555946;254;24163;-90
2023/12/16 01:25:20;;;;;;;8.87;3.47;;;5.30;99.90;4.40;101594;;;;556007;254;24158;-91
2023/12/16 01:27:51;;;;;;;5.90;2.60;;;5.30;99.90;4.40;101591;;;;555836;254;24166;-89
2023/12/16 01:30:24;;;;;;;12.93;2.87;;;;;4.40;101597;;;;555888;254;24133;-90
2023/12/16 01:32:57;;;;;;;8.52;3.80;;;5.40;99.90;4.40;101590;;;;570471;250;35430;-92
2023/12/16 01:35:25;;;;;;;2.87;2.20;;;5.40;99.90;4.40;101585;;;;555953;254;24184;-90
2023/12/16 01:37:53;;;;;;;11.50;4.47;;;5.30;99.90;4.40;101586;;;;559198;253;24130;-91
2023/12/16 01:40:26;;;;;;;12.13;3.57;;;5.40;99.90;4.40;101582;;;;560200;252;24174;-91
2023/12/16 01:42:54;;;;;;;16.87;6.17;;;5.40;99.90;4.50;101576;;;;560659;253;24151;-89
2023/12/16 01:45:28;;;;;;;9.83;3.70;;;5.40;99.90;4.40;101562;;;;560667;253;24088;-91
2023/12/16 01:47:48;;;;;;;13.03;4.90;;;5.30;99.90;4.40;101569;;;;559719;253;24150;-88
2023/12/16 01:50:23;;;;;;;8.10;2.97;;;;;4.40;101568;;;;566710;250;24236;-87
2023/12/16 01:52:51;;;;;;;7.00;3.80;;;5.40;99.90;4.40;101580;;;;551225;255;35712;-89
2023/12/16 01:55:18;;;;;;;11.45;5.20;;;5.40;99.90;4.40;101591;;;;551786;254;35676;-91
2023/12/16 01:57:49;;;;;;;8.20;4.23;;;5.50;99.90;4.50;101582;;;;551358;254;35705;-92
2023/12/16 02:00:25;;;;;;;9.25;4.70;;;;;4.50;101594;;;;550744;254;35666;-91
2023/12/16 02:02:44;;;;;;;8.27;3.70;;;5.50;99.90;4.50;101595;;;;548926;254;35516;-92
2023/12/16 02:05:20;;;;;;;18.10;7.07;;;5.50;99.90;4.50;101607;;;;555541;254;24149;-91
2023/12/16 02:07:45;;;;;;;8.77;3.73;;;5.50;99.90;4.50;101606;;;;555248;255;24157;-91
2023/12/16 02:10:21;;;;;;;4.87;2.70;;;5.50;99.90;4.50;101600;;;;559242;253;24189;-91
2023/12/16 02:12:43;;;;;;;14.53;3.63;;;5.50;99.90;4.50;101613;;;;558821;253;24228;-90
2023/12/16 02:15:13;;;;;;;16.90;4.27;;;5.50;99.90;4.50;101602;;;;565430;250;24133;-92
2023/12/16 02:17:42;;;;;;;10.17;4.50;;;5.40;99.90;4.50;101615;;;;558923;253;24121;-91
2023/12/16 02:20:10;;;;;;;11.13;4.33;;;5.50;99.90;4.50;101600;;;;558821;253;24173;-91
2023/12/16 02:22:35;;;;;;;18.47;6.13;;;5.50;99.90;4.50;101602;;;;559056;253;24169;-91
2023/12/16 02:25:03;;;;;;;7.93;3.63;;;5.50;99.90;4.50;101601;;;;559128;253;24125;-91
2023/12/16 02:27:32;;;;;;;15.17;4.97;;;5.50;99.90;4.50;101596;;;;559457;253;24122;-91
2023/12/16 02:30:05;;;;;;;16.20;4.00;;;5.50;99.90;4.50;101597;;;;559394;253;24194;-91
2023/12/16 02:32:33;;;;;;;16.70;5.60;;;5.50;99.90;4.50;101601;;;;559125;253;24171;-92
2023/12/16 02:35:00;;;;;;;11.40;4.27;;;5.50;99.90;4.50;101600;;;;559175;253;24115;-91
2023/12/16 02:37:28;;;;;;;12.37;4.83;;;5.50;99.90;4.60;101608;;;;559322;253;24150;-90
2023/12/16 02:40:00;;;;;;;11.67;4.80;;;5.50;99.90;4.60;101609;;;;558772;252;24153;-91
2023/12/16 02:42:28;;;;;;;8.83;3.70;;;5.50;99.90;4.60;101603;;;;558814;252;24191;-91
2023/12/16 02:44:59;;;;;;;10.33;3.17;;;6.00;99.90;4.60;101603;;;;558683;252;24195;-91
2023/12/16 02:47:25;;;;;;;14.83;3.90;;;5.50;99.90;4.60;101604;;;;559055;253;24139;-92
2023/12/16 02:49:58;;;;;;;19.63;6.23;;;5.60;99.90;4.70;101613;;;;559077;253;24158;-91
2023/12/16 02:52:22;;;;;;;15.30;4.77;;;5.60;99.90;4.70;101606;;;;559657;252;24196;-90
2023/12/16 02:54:53;;;;;;;8.23;3.10;;;5.60;99.90;4.70;101616;;;;560216;251;24188;-91
2023/12/16 02:57:25;;;;;;;8.97;3.77;;;5.60;99.90;4.70;101614;;;;567482;252;24108;-90
2023/12/16 02:59:53;;;;;;;7.20;3.33;;;5.50;99.90;4.70;101617;;;;560026;253;24136;-91
2023/12/16 03:02:27;;;;;;;10.43;3.23;;;5.60;99.90;4.70;101618;;;;560386;253;24129;-91
2023/12/16 03:04:58;;;;;;;9.73;4.00;;;5.60;99.90;4.70;101614;;;;559099;252;24122;-90
2023/12/16 03:07:27;;;;;;;13.57;4.87;;;5.60;99.90;4.70;101608;;;;565943;250;25166;-92
2023/12/16 03:09:55;;;;;;;10.27;3.37;;;5.60;99.90;4.70;101597;;;;564243;254;24173;-90
2023/12/16 03:12:20;;;;;;;12.23;4.73;;;5.60;99.90;4.70;101605;;;;559449;253;24188;-91
2023/12/16 03:14:55;;;;;;;9.87;3.90;;;5.60;99.90;4.70;101601;;;;559896;253;24187;-91
2023/12/16 03:17:33;;;;;;;;;;;;;;;;;;;;;
2023/12/16 03:19:55;;;;;;;17.17;6.10;;;5.70;99.90;4.80;101612;;;;564754;250;24121;-90
2023/12/16 03:22:22;;;;;;;12.37;4.17;;;5.60;99.90;4.80;101607;;;;556452;254;24153;-90
2023/12/16 03:24:54;;;;;;;13.90;5.03;;;5.70;99.90;4.80;101607;;;;560290;253;24123;-90
2023/12/16 03:27:30;;;;;;;11.40;3.83;;;5.70;99.90;4.80;101621;;;;560516;252;24110;-91
2023/12/16 03:30:06;;;;;;;7.33;2.63;;;5.70;99.90;4.80;101601;;;;560006;253;24162;-91
2023/12/16 03:32:27;;;;;;;21.93;4.83;;;5.70;99.90;4.80;101597;;;;565530;250;24151;-90
2023/12/16 03:35:05;;;;;;;8.77;3.00;;;5.70;99.90;4.80;101598;;;;563233;253;24220;-90
2023/12/16 03:37:28;;;;;;;7.33;3.60;;;5.70;99.90;4.80;101606;;;;557969;253;24122;-91
2023/12/16 03:39:55;;;;;;;9.10;3.53;;;5.70;99.90;4.80;101604;;;;559133;253;24127;-91
2023/12/16 03:42:26;;;;;;;10.43;3.20;;;5.80;99.90;4.80;101612;;;;558789;252;24158;-91
2023/12/16 03:44:58;;;;;;;10.23;3.17;;;5.80;99.90;4.80;101608;;;;559428;253;24154;-89
2023/12/16 03:47:24;;;;;;;13.20;5.17;;;5.80;99.90;4.80;101618;;;;558381;253;24171;-89
2023/12/16 03:49:56;;;;;;;8.20;2.53;;;5.80;99.90;4.90;101609;;;;560080;253;24086;-88
2023/12/16 03:52:21;;;;;;;12.77;3.67;;;5.80;99.90;4.90;101613;;;;558643;250;25145;-89
2023/12/16 03:54:52;;;;;;;19.83;5.87;;;5.80;99.90;4.90;101627;;;;566164;247;24202;-90
2023/12/16 03:57:18;;;;;;;16.67;3.97;;;;;4.90;101621;;;;559801;252;24138;-91
2023/12/16 03:59:49;;;;;;;17.73;6.72;;;5.90;99.90;4.90;101622;;;;563820;250;35627;-92
2023/12/16 04:02:21;;;;;;;12.83;5.30;;;5.90;99.90;4.90;101618;;;;560174;251;25306;-90
2023/12/16 04:04:51;;;;;;;19.90;5.03;;;5.90;99.90;4.90;101613;;;;561133;251;24159;-89
2023/12/16 04:07:22;;;;;;;7.47;2.63;;;5.80;99.90;4.90;101594;;;;560580;251;24129;-91
2023/12/16 04:09:54;;;;;;;28.60;8.07;;;5.90;99.90;5.00;101602;;;;560335;253;24164;-90
2023/12/16 04:12:22;;;;;;;12.30;3.57;;;5.90;99.90;5.00;101607;;;;560871;252;24087;-89
2023/12/16 04:14:53;;;;;;;8.00;3.10;;;5.90;99.90;5.00;101604;;;;560545;253;24139;-88
2023/12/16 04:17:25;;;;;;;19.03;4.93;;;5.90;99.90;5.00;101620;;;;560917;249;24129;-89
2023/12/16 04:19:51;;;;;;;10.83;2.77;;;5.90;99.90;5.00;101629;;;;559934;253;24118;-89
2023/12/16 04:22:22;;;;;;;11.30;2.97;;;5.90;99.90;5.00;101637;;;;559349;252;24179;-91
2023/12/16 04:24:50;;;;;;;10.13;3.90;;;5.80;99.90;5.00;101630;;;;558769;253;24140;-90
2023/12/16 04:27:14;;;;;;;13.80;4.33;;;5.90;99.90;5.00;101623;;;;557976;253;24121;-90
2023/12/16 04:29:42;;;;;;;8.07;3.30;;;5.90;99.90;5.00;101624;;;;559212;253;24114;-90
2023/12/16 04:32:10;;;;;;;5.23;1.13;;;5.90;99.90;5.00;101621;;;;559145;252;24182;-92
2023/12/16 04:34:42;;;;;;;22.23;2.93;;;5.90;99.90;5.00;101615;;;;555808;253;24173;-91
2023/12/16 04:37:10;;;;;;;8.50;3.00;;;5.90;99.90;5.00;101624;;;;559174;253;24192;-90
2023/12/16 04:39:41;;;;;;;7.80;2.17;;;5.90;99.90;5.00;101625;;;;565229;250;24244;-90
2023/12/16 04:42:10;;;;;;;9.83;2.80;;;5.90;99.90;5.00;101627;;;;559021;253;24126;-90
2023/12/16 04:44:37;;;;;;;1.40;1.17;;;5.90;99.90;5.00;101636;;;;565457;250;24159;-90
2023/12/16 04:47:09;;;;;;;12.77;4.90;;;5.90;99.90;5.00;101625;;;;555740;254;24183;-91
2023/12/16 04:49:33;;;;;;;7.20;3.23;;;6.00;99.90;5.10;101627;;;;559334;253;24130;-90
2023/12/16 04:52:02;;;;;;;6.50;2.47;;;5.90;99.90;5.00;101623;;;;561692;253;24136;-89
2023/12/16 04:54:34;;;;;;;6.53;2.60;;;5.90;99.90;5.00;101620;;;;559368;253;24114;-91
2023/12/16 04:56:59;;;;;;;14.63;3.97;;;6.00;99.90;5.00;101615;;;;553866;250;35485;-91
2023/12/16 04:59:27;;;;;;;14.97;4.47;;;5.90;99.90;5.00;101615;;;;559402;253;24155;-92
2023/12/16 05:01:56;;;;;;;10.67;3.00;;;6.00;99.90;5.00;101625;;;;558899;253;24120;-90
2023/12/16 05:04:28;;;;;;;5.67;2.77;;;5.90;99.90;5.00;101631;;;;556335;253;24128;-90
2023/12/16 05:06:56;;;;;;;12.23;3.97;;;5.90;99.90;5.00;101617;;;;565294;250;24114;-90
2023/12/16 05:09:24;;;;;;;7.10;3.30;;;5.90;99.90;5.00;101625;;;;555665;254;24146;-91
2023/12/16 05:11:55;;;;;;;4.60;2.70;;;5.90;99.90;5.00;101625;;;;567623;253;24148;-91
2023/12/16 05:14:20;;;;;;;15.23;4.07;;;5.90;99.90;5.00;101629;;;;559462;252;24172;-90
2023/12/16 05:16:48;;;;;;;14.60;4.37;;;5.90;99.90;5.00;101635;;;;560421;253;24108;-92
2023/12/16 05:19:16;;;;;;;20.27;5.13;;;5.90;99.90;5.00;101624;;;;560150;253;24149;-90
2023/12/16 05:21:47;;;;;;;31.17;9.07;;;5.90;99.90;5.00;101627;;;;560292;253;24167;-91
2023/12/16 05:24:21;;;;;;;11.03;3.33;;;5.90;99.90;5.00;101624;;;;559322;253;25169;-90
2023/12/16 05:26:46;;;;;;;5.63;2.47;;;5.90;99.90;5.00;101616;;;;558184;253;24127;-89
2023/12/16 05:29:14;;;;;;;19.87;4.80;;;5.90;99.90;5.00;101632;;;;560253;252;24179;-90
2023/12/16 05:31:44;;;;;;;15.33;5.30;;;5.90;99.90;5.00;101638;;;;560367;253;24152;-91
2023/12/16 05:34:12;;;;;;;21.43;5.00;;;5.90;99.90;5.00;101642;;;;557004;253;24230;-89
2023/12/16 05:36:41;;;;;;;12.33;4.10;;;5.90;99.90;5.00;101641;;;;560542;253;24100;-90
2023/12/16 05:39:14;;;;;;;24.07;6.73;;;5.90;99.90;5.00;101650;;;;566559;249;24101;-89
2023/12/16 05:41:38;;;;;;;18.57;5.33;;;5.90;99.90;5.00;101650;;;;556609;251;24186;-89
2023/12/16 05:44:06;;;;;;;23.50;7.43;;;5.90;99.90;5.00;101642;;;;568370;252;24145;-88
2023/12/16 05:46:37;;;;;;;9.60;3.53;;;6.00;99.90;5.10;101642;;;;559952;253;24149;-91
2023/12/16 05:49:05;;;;;;;9.83;3.07;;;6.00;99.90;5.10;101643;;;;559853;253;24178;-91
2023/12/16 05:51:43;;;;;;;5.73;2.93;;;5.90;99.90;5.10;101631;;;;559701;251;24170;-90
2023/12/16 05:54:08;;;;;;;8.27;3.20;;;5.90;99.90;5.10;101636;;;;559169;253;24193;-88
2023/12/16 05:56:40;;;;;;;2.87;1.87;;;5.90;99.90;5.10;101631;;;;559782;253;24124;-89
2023/12/16 05:59:08;;;;;;;15.23;4.03;;;6.00;99.90;5.10;101617;;;;559778;253;24188;-91
2023/12/16 06:01:36;;;;;;;11.37;3.03;;;5.90;99.90;5.10;101630;;;;559532;252;25216;-90
2023/12/16 06:04:04;;;;;;;16.90;4.53;;;6.00;99.90;5.10;101628;;;;559908;252;24119;-90
2023/12/16 06:06:53;;;;;;;;;;;;;;;;;;;;;
2023/12/16 06:09:20;;;;;;;11.10;3.90;;;5.90;99.90;5.10;101639;;;;559543;253;24119;-89
2023/12/16 06:11:49;;;;;;;7.47;2.90;;;6.00;99.90;5.10;101619;;;;559926;253;24125;-89
2023/12/16 06:14:19;;;;;;;24.23;7.17;;;6.00;99.90;5.10;101628;;;;560083;252;24137;-89
2023/12/16 06:16:49;;;;;;;16.67;5.03;;;6.00;99.90;5.10;101615;;;;560321;253;24106;-91
2023/12/16 06:19:19;;;;;;;10.97;2.40;;;6.00;99.90;5.10;101615;;;;559814;253;24133;-90
2023/12/16 06:21:47;;;;;;;9.17;2.23;;;6.00;99.90;5.10;101599;;;;559560;253;24110;-90
2023/12/16 06:24:13;;;;;;;30.27;8.83;;;6.00;99.90;5.10;101603;;;;559535;253;24183;-90
2023/12/16 06:26:48;;;;;;;18.87;6.03;;;6.00;99.90;5.10;101598;;;;560942;252;24207;-88
2023/12/16 06:29:13;;;;;;;16.60;3.87;;;5.90;99.90;5.10;101599;;;;560509;251;24165;-92
2023/12/16 06:31:44;;;;;;;6.27;1.83;;;5.90;99.90;5.00;101598;;;;560524;253;24183;-89
2023/12/16 06:34:16;;;;;;;9.63;2.77;;;5.80;99.90;4.90;101588;;;;559756;253;24153;-89
2023/12/16 06:36:45;;;;;;;8.10;2.17;;;5.70;99.90;4.70;101583;;;;559171;253;24200;-91
2023/12/16 06:39:10;;;;;;;14.73;3.40;;;5.60;99.90;4.60;101594;;;;560325;253;24190;-87
2023/12/16 06:41:40;;;;;;;16.50;2.50;;;5.50;99.90;4.60;101585;;;;560164;253;24135;-87
2023/12/16 06:44:08;;;;;;;19.50;5.67;;;5.40;99.90;4.50;101607;;;;559922;253;24124;-87
2023/12/16 06:46:39;;;;;;;10.90;4.17;;;5.40;99.90;4.50;101603;;;;557240;250;24167;-88
2023/12/16 06:49:04;;;;;;;7.77;3.03;;;5.30;99.90;4.40;101608;;;;559477;253;24131;-91
2023/12/16 06:51:35;;;;;;;12.17;3.73;;;5.30;99.90;4.40;101605;;;;559898;253;24143;-90
2023/12/16 06:54:03;;;;;;;7.43;2.40;;;5.20;99.90;4.30;101613;;;;559746;252;24135;-90
2023/12/16 06:56:32;;;;;;;24.03;5.80;;;5.20;99.90;4.30;101620;;;;559678;253;24150;-91
2023/12/16 06:58:57;;;;;;;11.03;3.23;;;4.00;99.90;4.20;101608;;;;559531;253;24112;-91
2023/12/16 07:01:25;;;;;;;3.50;2.13;;;4.90;99.90;4.20;101627;;;;559867;253;25169;-91
2023/12/16 07:03:57;;;;;;;8.87;3.43;;;4.80;99.90;4.20;101617;;;;568463;252;24130;-89
2023/12/16 07:06:27;;;;;;;22.97;6.40;;;5.10;99.90;4.10;101617;;;;558968;253;24174;-91
2023/12/16 07:11:40;;;;;;;9.85;3.60;;;4.90;99.90;4.00;101596;;;;561238;244;35549;-93
2023/12/16 07:14:11;;;;;;;5.27;2.57;;;4.90;99.90;4.00;101608;;;;564705;251;24121;-90
2023/12/16 07:16:39;;;;;;;4.37;2.87;;;5.00;99.90;4.10;101618;;;;556011;255;24138;-92
2023/12/16 07:19:11;;;;;;;4.77;2.30;;;5.00;99.90;4.20;101607;;;;557951;255;24115;-92
2023/12/16 07:21:35;;;;;;;10.20;3.27;;;5.10;99.90;4.20;101629;;;;553337;255;24140;-93
2023/12/16 07:24:06;;;;;;;4.27;1.80;;;5.20;99.90;4.30;101633;;;;555814;256;24109;-90
2023/12/16 07:26:39;;;;;;;14.18;3.62;;;5.30;99.90;4.40;101630;;;;548134;256;35666;-91
2023/12/16 07:29:07;;;;;;;6.43;2.63;;;5.30;99.90;4.40;101637;;;;554039;256;24097;-90
2023/12/16 07:31:40;;;;;;;6.70;2.30;;;5.30;99.90;4.40;101632;;;;572309;251;24083;-91
2023/12/16 07:34:09;;;;;;;8.00;2.90;;;5.40;99.90;4.40;101626;;;;555455;255;24226;-89
2023/12/16 07:36:35;;;;;;;5.17;2.73;;;5.30;99.90;4.40;101623;;;;557393;255;24152;-89
2023/12/16 07:39:09;;;;;;;6.43;2.17;;;5.30;99.90;4.40;101640;;;;559227;254;24161;-90
2023/12/16 07:41:34;;;;;;;2.73;1.93;;;5.40;99.90;4.40;101623;;;;558328;254;24123;-89
2023/12/16 07:44:04;;;;;;;3.73;2.27;;;5.40;99.90;4.50;101620;;;;558113;254;24174;-89
2023/12/16 07:46:34;;;;;;;11.00;3.90;;;5.50;99.90;4.50;101622;;;;551987;256;35493;-89
2023/12/16 07:49:01;;;;;;;12.63;3.47;;;5.50;99.90;4.50;101615;;;;553766;256;24134;-89
2023/12/16 07:51:29;;;;;;;8.23;3.33;;;5.50;99.90;4.50;101613;;;;563239;255;24149;-90
2023/12/16 07:53:57;;;;;;;8.23;2.43;;;5.50;99.90;4.60;101619;;;;554626;256;24114;-89
2023/12/16 07:56:29;;;;;;;11.40;2.00;;;5.50;99.90;4.60;101612;;;;556307;256;24105;-87
2023/12/16 07:58:54;;;;;;;8.90;2.73;;;5.50;99.90;4.70;101615;;;;563661;250;24105;-89
2023/12/16 08:01:22;;;;;;;8.10;2.80;;;5.60;99.90;4.80;101622;;;;558024;255;24109;-88
2023/12/16 08:03:53;;;;;;;2.87;2.07;;;5.70;99.90;4.80;101645;;;;555451;254;24109;-91
2023/12/16 08:06:20;;;;;;;8.83;1.97;;;5.90;99.90;5.00;101653;;;;554290;255;24127;-91
2023/12/16 08:08:50;;;;;;;7.47;1.93;;;6.00;99.90;5.10;101632;;;;556794;252;24120;-91
2023/12/16 08:11:15;;;;;;;9.33;3.20;;;6.10;99.90;5.20;101628;;;;558298;252;46460;-92
2023/12/16 08:13:43;;;;;;;7.47;3.13;;;6.10;99.90;5.20;101633;;;;567702;253;24124;-91
2023/12/16 08:16:13;;;;;;;8.37;2.30;;;6.10;99.90;5.20;101631;;;;570294;249;24084;-91
2023/12/16 08:18:41;;;;;;;7.73;2.00;;;6.10;99.90;5.20;101631;;;;559960;253;24124;-91
2023/12/16 08:21:13;;;;;;;3.77;1.63;;;6.20;99.90;5.30;101636;;;;566690;249;24119;-90
2023/12/16 08:23:40;;;;;;;1.80;1.63;;;6.50;99.90;5.40;101623;;;;567695;249;24121;-91
2023/12/16 08:26:12;;;;;;;3.20;2.87;;;6.40;99.90;5.50;101629;;;;578976;247;24175;-90
2023/12/16 08:28:41;;;;;;;6.20;2.17;;;6.50;99.90;5.60;101636;;;;568150;249;24129;-90
2023/12/16 08:31:10;;;;;;;2.47;1.53;;;6.60;99.90;5.70;101648;;;;570000;249;24182;-91
2023/12/16 08:33:37;;;;;;;1.33;1.30;;;6.70;99.90;5.80;101630;;;;570428;249;24143;-90
2023/12/16 08:36:05;;;;;;;3.13;1.67;;;6.80;99.90;5.90;101636;;;;570334;249;24109;-88
2023/12/16 08:38:32;;;;;;;4.03;2.00;;;6.80;99.90;6.00;101642;;;;579059;247;24101;-89
2023/12/16 08:40:58;;;;;;;2.63;1.40;;;6.90;99.90;6.10;101643;;;;578510;248;24153;-91
2023/12/16 08:43:28;;;;;;;6.87;1.60;;;7.00;99.90;6.20;101652;;;;570439;249;24106;-89
2023/12/16 08:45:54;;;;;;;9.47;2.07;;;7.00;99.90;6.40;101651;;;;570572;249;24092;-91
2023/12/16 08:48:26;;;;;;;2.00;0.90;;;7.40;99.90;6.60;101650;;;;569853;247;24117;-89
2023/12/16 08:50:51;;;;;;;4.23;2.03;;;7.40;99.90;6.80;101653;;;;571019;248;24113;-91
2023/12/16 08:53:18;;;;;;;3.17;1.40;;;7.60;99.90;6.90;101656;;;;580348;248;24105;-90
2023/12/16 08:55:46;;;;;;;3.80;2.23;;;7.90;99.90;7.10;101653;;;;574688;248;35366;-91
2023/12/16 08:58:18;;;;;;;1.77;1.67;;;7.90;99.90;7.30;101645;;;;570915;248;24096;-89
2023/12/16 09:00:42;;;;;;;8.33;2.40;;;8.20;99.90;7.50;101668;;;;570462;248;24099;-90
2023/12/16 09:03:13;;;;;;;4.53;2.40;;;8.30;99.90;7.50;101658;;;;579782;248;24082;-90
2023/12/16 09:05:38;;;;;;;1.83;1.63;;;8.40;99.90;7.50;101664;;;;579556;248;24094;-90
2023/12/16 09:08:09;;;;;;;6.83;2.13;;;8.40;99.90;7.40;101658;;;;571623;249;24120;-89
2023/12/16 09:10:35;;;;;;;5.33;1.70;;;8.30;99.90;7.40;101670;;;;568358;251;24146;-89
2023/12/16 09:13:03;;;;;;;4.93;2.10;;;8.30;99.90;7.40;101672;;;;578741;248;24083;-87
2023/12/16 09:15:30;;;;;;;5.20;2.57;;;8.20;99.90;7.40;101681;;;;568644;252;24141;-88
2023/12/16 09:17:58;;;;;;;5.43;2.40;;;8.20;99.90;7.40;101683;;;;568614;253;24105;-89
2023/12/16 09:20:28;;;;;;;2.67;2.27;;;8.30;99.90;7.40;101691;;;;560444;252;24188;-88
2023/12/16 09:23:02;;;;;;;6.00;2.37;;;8.30;99.90;7.30;101683;;;;560450;253;24151;-88
2023/12/16 09:25:26;;;;;;;3.83;2.50;;;8.20;99.90;7.30;101682;;;;565017;254;24146;-87
2023/12/16 09:27:56;;;;;;;2.80;1.97;;;8.20;99.90;7.30;101682;;;;561217;253;24108;-88
2023/12/16 09:30:24;;;;;;;2.73;1.87;;;8.20;99.90;7.30;101682;;;;559144;253;24099;-87
2023/12/16 09:32:52;;;;;;;4.53;1.80;;;8.20;99.90;7.20;101688;;;;570647;248;24091;-87
2023/12/16 09:35:23;;;;;;;2.13;1.87;;;8.10;99.90;7.20;101680;;;;573726;251;24117;-87
2023/12/16 09:37:53;;;;;;;2.80;2.27;;;8.00;99.90;7.10;101688;;;;565229;245;24107;-88
2023/12/16 09:40:20;;;;;;;5.93;1.90;;;8.00;99.90;7.10;101693;;;;572960;251;24105;-88
2023/12/16 09:42:49;;;;;;;4.67;2.47;;;7.90;99.90;7.10;101700;;;;564439;252;25149;-88
2023/12/16 09:45:18;;;;;;;4.53;2.93;;;7.90;99.90;7.10;101689;;;;563767;252;24128;-88
2023/12/16 09:47:49;;;;;;;5.00;2.60;;;7.90;99.90;7.20;101684;;;;563551;252;24150;-88
2023/12/16 09:50:14;;;;;;;4.73;2.80;;;8.00;99.90;7.20;101685;;;;561750;252;24120;-88
2023/12/16 09:52:41;;;;;;;5.53;2.53;;;8.10;99.90;7.30;101691;;;;573458;248;24115;-88
2023/12/16 09:55:12;;;;;;;3.40;2.13;;;8.10;99.90;7.20;101685;;;;572988;251;24095;-88
2023/12/16 10:00:09;;;;;;;2.90;1.70;;;8.00;99.90;7.10;101689;;;;587116;241;24066;-87
2023/12/16 10:02:45;;;;;;;3.60;2.43;;;8.00;99.90;7.00;101678;;;;599007;236;24017;-90
2023/12/16 10:05:26;;;;;;;;;;;;;;;;;;;;;
2023/12/16 10:07:45;;;;;;;5.20;3.17;;;7.80;99.90;6.80;101687;;;;597029;237;23985;-89
2023/12/16 10:10:16;;;;;;;6.53;3.37;;;7.70;99.90;6.80;101679;;;;589804;240;24035;-89
2023/12/16 10:12:43;;;;;;;1.77;1.60;;;7.60;99.90;6.70;101667;;;;593938;238;24060;-90
2023/12/16 10:15:14;;;;;;;6.00;2.93;;;7.60;99.90;6.70;101672;;;;590378;238;24063;-89
2023/12/16 10:17:50;;;;;;;8.77;2.53;;;7.60;99.90;6.80;101670;;;;601973;232;24006;-89
2023/12/16 10:20:14;;;;;;;5.30;2.23;;;7.60;99.90;6.70;101668;;;;593178;238;24036;-89
2023/12/16 10:22:46;;;;;;;6.50;2.37;;;7.60;99.90;6.70;101659;;;;590227;240;24022;-88
2023/12/16 10:25:36;;;;;;;;;;;;;;;;;;;;;
2023/12/16 10:30:21;;;;;;;4.67;2.90;;;7.60;99.90;6.70;101656;;;;595876;228;24120;-88
2023/12/16 10:32:51;;;;;;;6.63;2.70;;;7.60;99.90;6.80;101655;;;;584252;242;24027;-89
2023/12/16 10:37:58;;;;;;;3.70;2.57;;;7.60;99.90;6.80;101654;;;;596110;234;24058;-88
2023/12/16 10:40:29;;;;;;;7.57;1.97;;;7.70;99.90;6.80;101654;;;;586048;241;24044;-89
2023/12/16 10:42:56;;;;;;;4.77;2.03;;;7.70;99.90;6.80;101642;;;;606629;237;24049;-88
2023/12/16 10:45:25;;;;;;;9.97;3.03;;;7.60;99.90;6.80;101636;;;;603601;238;24037;-89
2023/12/16 10:48:05;;;;;;;2.00;1.63;;;7.60;99.90;6.80;101633;;;;597945;237;24031;-88
2023/12/16 10:50:39;;;;;;;4.27;2.47;;;7.60;99.90;6.80;101641;;;;589142;241;24063;-89
2023/12/16 10:55:32;;;;;;;4.27;1.77;;;7.60;99.90;6.80;101621;;;;592673;237;24208;-90
2023/12/16 10:58:05;;;;;;;10.33;2.47;;;7.60;99.90;6.80;101617;;;;604643;234;25168;-88
2023/12/16 11:00:40;;;;;;;2.13;1.40;;;7.70;99.90;6.80;101618;;;;588384;240;24048;-88
2023/12/16 11:03:19;;;;;;;8.60;2.57;;;7.70;99.90;6.80;101614;;;;596467;237;24039;-89
2023/12/16 11:05:48;;;;;;;14.40;2.53;;;7.60;99.90;6.80;101620;;;;584902;241;24112;-88
2023/12/16 11:08:16;;;;;;;9.17;2.07;;;7.60;99.90;6.80;101615;;;;591851;240;24112;-88
2023/12/16 11:10:47;;;;;;;8.60;2.67;;;7.60;99.90;6.80;101618;;;;600133;236;24092;-87
2023/12/16 11:13:16;;;;;;;8.50;2.60;;;7.60;99.90;6.70;101604;;;;601017;235;24024;-90
2023/12/16 11:15:42;;;;;;;7.10;2.93;;;7.60;99.90;6.80;101616;;;;600556;235;24021;-88
2023/12/16 11:18:28;;;;;;;7.07;2.37;;;7.60;99.90;6.70;101602;;;;583756;241;24069;-87
2023/12/16 11:20:53;;;;;;;4.23;1.67;;;7.60;99.90;6.70;101598;;;;608885;236;24026;-89
2023/12/16 11:23:24;;;;;;;8.20;2.53;;;7.60;99.90;6.80;101592;;;;600167;236;24052;-88
2023/12/16 11:25:49;;;;;;;11.77;2.73;;;7.60;99.90;6.70;101598;;;;599811;236;24021;-88
2023/12/16 11:28:21;;;;;;;4.03;2.67;;;7.60;99.90;6.80;101598;;;;600806;236;24001;-88
2023/12/16 11:30:56;;;;;;;10.93;2.33;;;7.60;99.90;6.80;101598;;;;599842;236;24015;-88
2023/12/16 11:33:24;;;;;;;5.40;2.73;;;7.70;99.90;6.80;101597;;;;598782;236;24077;-87
2023/12/16 11:36:00;;;;;;;6.60;2.60;;;7.70;99.90;6.80;101590;;;;600536;236;24067;-88
2023/12/16 11:38:41;;;;;;;6.77;3.00;;;7.70;99.90;6.80;101580;;;;600503;236;24029;-90
2023/12/16 11:41:41;;;;;;;5.60;2.33;;;7.60;99.90;6.80;101575;;;;599930;236;25099;-87
2023/12/16 11:44:13;;;;;;;5.73;2.87;;;7.60;99.90;6.80;101573;;;;599630;236;24018;-87
2023/12/16 11:46:45;;;;;;;11.20;3.60;;;7.70;99.90;6.90;101571;;;;599457;236;24022;-89
2023/12/16 11:49:26;;;;;;;;;;;;;;;;;;;;;
2023/12/16 11:51:44;;;;;;;7.37;2.97;;;7.80;99.90;7.00;101554;;;;597861;236;24020;-89
2023/12/16 11:54:14;;;;;;;7.30;3.57;;;7.80;99.90;7.10;101548;;;;599376;236;24072;-89